Aviation Digital Data Service (ADDS)

Output produced by METARs form (0748 UTC 05 July 2015)
found at http://www.aviationweather.gov/adds/metars/
 
METAR text: EPBY 050730Z VRB01KT CAVOK 31/10 Q1018
Conditions at: EPBY (BYDGOSZDZ , PL) observed 0730 UTC 05 July 2015
Temperature: 31.0°C (88°F)
Dewpoint: 10.0°C (50°F) [RH = 27%]
Pressure (altimeter): 30.06 inches Hg (1018.0 mb)
Winds: variable direction winds at 1 MPH (1 knots; 0.5 m/s)
Visibility: 6 or more miles (10+ km)
Ceiling: ceiling and visibility are OK
Clouds: unknown
Weather: no significant weather observed at this time

Forecast for: EPBY (BYDGOSZDZ , PL)
Text: TAF EPBY 050530Z 0506/0515 VRB04KT CAVOK
Forecast period: 0600 to 1500 UTC 05 July 2015
Forecast type: FROM: standard forecast or significant change
Winds: variable direction winds at 5 MPH (4 knots; 2.1 m/s)
Visibility: 6 or more miles (10+ km)
Clouds: not forecast
Weather: NSW  (no significant weather)
Text: PROB40
Forecast period: 1200 to 1500 UTC 05 July 2015
Forecast type: TEMPORARY: The following changes expected for less than half the time period
Visibility: 3 miles (5 km)
Ceiling: 4000 feet AGL
Clouds: broken clouds at 4000 feet AGL
Weather: TSRA  (rain associated with thunderstorm(s))